Brookley Field, Alabama
Current Conditions -  °F | °C
As of 7:24 PM on Sunday 23 Nov 2014 (Local Time) from KBFM Reporting Station
Broken Clouds Broken Clouds  
Wind Chill: 68°   Ceiling: 1700
Heat Index: 68°   Visibility: 10mi
Dew Point: 65°   Wind: 8mph
Humidity: 90%   Direction: 180°S
Pressure: 29.74"   Gusts: NA
Location:  30.641°N, 88.065°W
Report Text: KBFM 240124Z AUTO 18007KT 10SM FEW010 BKN017 BKN024 20/18 A2974 RMK AO2 T02000183
Loading
Personal Weather Stations






























Interactive Weather Map New forecast layout! Learn more

10-Day Weather Forecast

Advertisements
Track Severe Weather on mobile